Time;durP1;ratioP1;P1;durP2;ratioP2;P2;SDS_P1;SDS_P2;PMS_P1;PMS_P2;Temp;Humidity;BMP_temperature;BMP_pressure;BME280_temperature;BME280_humidity;BME280_pressure;Samples;Min_cycle;Max_cycle;Signal;HPM_P1;HPM_P2
2023/03/12 00:01:47;;;;;;;12.90;6.30;;;;;;;1.96;75.94;101896.13;4948107;27;20070;-65
2023/03/12 00:04:18;;;;;;;8.90;5.88;;;;;;;1.88;75.98;101896.66;4949405;27;20735;-63
2023/03/12 00:06:49;;;;;;;10.27;5.80;;;;;;;1.80;75.71;101899.69;4947401;27;20055;-65
2023/03/12 00:09:19;;;;;;;12.75;6.43;;;;;;;1.78;76.04;101901.34;4947626;27;20049;-63
2023/03/12 00:11:51;;;;;;;10.00;6.10;;;;;;;1.61;76.44;101882.53;4954900;27;20061;-61
2023/03/12 00:14:23;;;;;;;16.23;6.90;;;;;;;1.64;76.68;101893.84;4948768;27;20050;-62
2023/03/12 00:16:54;;;;;;;12.98;6.80;;;;;;;1.61;77.23;101883.41;4947752;27;20067;-64
2023/03/12 00:19:25;;;;;;;11.30;6.25;;;;;;;1.72;76.96;101877.06;4947436;27;20078;-63
2023/03/12 00:21:56;;;;;;;11.05;5.32;;;;;;;1.94;76.42;101890.91;4949052;27;20094;-64
2023/03/12 00:24:26;;;;;;;13.38;6.35;;;;;;;2.01;75.89;101890.34;4947261;27;20059;-65
2023/03/12 00:26:57;;;;;;;13.70;6.38;;;;;;;2.10;76.14;101897.63;4947253;27;20080;-63
2023/03/12 00:29:29;;;;;;;11.82;6.40;;;;;;;2.10;76.12;101885.63;4947339;27;20429;-63
2023/03/12 00:31:59;;;;;;;11.18;6.85;;;;;;;2.12;75.44;101898.56;4946203;27;20505;-63
2023/03/12 00:34:30;;;;;;;12.65;7.00;;;;;;;2.07;75.82;101890.66;4951838;27;20103;-64
2023/03/12 00:37:01;;;;;;;16.30;6.53;;;;;;;2.14;76.07;101882.34;4948262;27;20051;-63
2023/03/12 00:39:33;;;;;;;16.33;7.00;;;;;;;2.42;75.89;101873.25;4948157;27;20073;-64
2023/03/12 00:42:04;;;;;;;10.82;6.82;;;;;;;2.64;75.23;101861.22;4947379;27;20071;-64
2023/03/12 00:44:36;;;;;;;9.63;5.80;;;;;;;2.92;73.70;101856.38;4946640;27;20059;-63
2023/03/12 00:47:07;;;;;;;13.68;6.72;;;;;;;3.10;73.37;101855.38;4947389;27;21288;-62
2023/03/12 00:49:38;;;;;;;15.23;5.50;;;;;;;3.22;71.88;101866.16;4947752;27;20706;-64
2023/03/12 00:52:09;;;;;;;12.20;5.35;;;;;;;3.23;70.74;101857.59;4946661;27;20079;-63
2023/03/12 00:54:39;;;;;;;11.43;5.97;;;;;;;3.22;70.26;101866.16;4945138;27;20419;-62
2023/03/12 00:57:10;;;;;;;12.13;5.20;;;;;;;3.24;70.32;101854.19;4952034;27;20159;-62
2023/03/12 00:59:45;;;;;;;14.23;5.30;;;;;;;3.32;70.70;101863.13;4950054;27;20392;-62
2023/03/12 01:02:16;;;;;;;10.20;5.18;;;;;;;3.43;70.39;101866.13;4945600;27;20128;-62
2023/03/12 01:04:46;;;;;;;12.80;5.30;;;;;;;3.36;70.30;101877.91;4946524;27;21276;-61
2023/03/12 01:07:17;;;;;;;10.60;5.15;;;;;;;3.25;70.28;101871.47;4948205;27;20134;-61
2023/03/12 01:09:47;;;;;;;11.13;5.68;;;;;;;3.15;70.39;101875.38;4945951;27;20069;-62
2023/03/12 01:12:18;;;;;;;11.77;5.25;;;;;;;3.08;70.82;101882.81;4946474;27;20055;-62
2023/03/12 01:14:50;;;;;;;12.60;5.63;;;;;;;3.11;70.98;101862.28;4947422;27;20892;-61
2023/03/12 01:17:21;;;;;;;12.27;5.30;;;;;;;3.17;71.33;101857.34;4939250;27;22095;-62
2023/03/12 01:19:52;;;;;;;12.63;6.35;;;;;;;3.34;71.29;101833.03;4960297;27;20137;-61
2023/03/12 01:22:23;;;;;;;16.80;5.70;;;;;;;3.70;70.27;101830.09;4946866;27;20055;-61
2023/03/12 01:24:53;;;;;;;14.05;5.82;;;;;;;3.89;69.13;101817.00;4947554;27;20059;-61
2023/03/12 01:27:24;;;;;;;13.90;6.10;;;;;;;4.13;68.82;101805.75;4946012;27;20052;-61
2023/03/12 01:29:56;;;;;;;13.43;5.85;;;;;;;4.41;68.61;101796.34;4946753;27;20079;-61
2023/03/12 01:32:27;;;;;;;9.93;5.53;;;;;;;4.49;67.14;101789.69;4947238;27;20075;-61
2023/03/12 01:35:00;;;;;;;14.50;5.47;;;;;;;4.47;67.01;101791.38;4946114;27;20055;-61
2023/03/12 01:37:33;;;;;;;15.25;5.80;;;;;;;4.08;66.20;101740.03;4935504;27;20043;-61
2023/03/12 01:40:05;;;;;;;16.20;5.25;;;;;;;4.55;66.99;101789.91;4947355;27;20051;-61
2023/03/12 01:42:35;;;;;;;15.02;5.47;;;;;;;4.64;66.12;101792.81;4947884;27;20158;-60
2023/03/12 01:45:23;;;;;;;11.30;5.00;;;;;;;4.60;65.94;101788.34;4945408;27;20078;-60
2023/03/12 01:47:53;;;;;;;9.68;4.63;;;;;;;4.51;66.08;101782.88;4935429;27;20147;-61
2023/03/12 01:50:24;;;;;;;9.57;4.63;;;;;;;4.27;66.48;101763.13;4946158;27;20043;-60
2023/03/12 01:52:57;;;;;;;11.23;4.70;;;;;;;4.28;66.73;101775.22;4945592;27;20082;-61
2023/03/12 01:55:28;;;;;;;10.82;4.72;;;;;;;4.29;66.79;101768.34;4946725;27;20057;-60
2023/03/12 01:58:00;;;;;;;16.77;5.47;;;;;;;4.41;67.12;101765.28;4945976;27;20066;-60
2023/03/12 02:00:33;;;;;;;12.85;5.53;;;;;;;4.42;66.55;101757.56;4935810;27;20062;-60
2023/03/12 02:03:08;;;;;;;9.23;5.20;;;;;;;4.52;66.78;101764.81;4945645;27;20501;-59
2023/03/12 02:05:47;;;;;;;12.68;6.13;;;;;;;4.69;66.32;101762.78;4947240;27;20058;-60
2023/03/12 02:08:19;;;;;;;14.65;5.68;;;;;;;4.74;65.61;101758.59;4934715;27;20776;-59
2023/03/12 02:10:50;;;;;;;13.80;6.28;;;;;;;4.70;65.47;101764.50;4943288;28;20067;-59
2023/03/12 02:13:21;;;;;;;9.07;5.10;;;;;;;4.66;64.98;101747.09;4950499;28;20131;-59
2023/03/12 02:15:53;;;;;;;12.73;5.40;;;;;;;4.79;64.85;101763.03;4947003;27;20605;-59
2023/03/12 02:18:24;;;;;;;12.13;5.63;;;;;;;5.01;64.84;101757.69;4945297;28;20047;-59
2023/03/12 02:21:04;;;;;;;15.57;5.97;;;;;;;5.23;64.09;101771.28;4945870;28;20051;-59
2023/03/12 02:23:40;;;;;;;11.75;5.63;;;;;;;4.92;62.62;101709.09;4935005;28;20471;-58
2023/03/12 02:26:13;;;;;;;12.70;7.25;;;;;;;5.19;62.75;101763.44;4937482;28;20120;-57
2023/03/12 02:28:45;;;;;;;10.52;6.05;;;;;;;5.36;62.90;101774.28;4945317;28;20047;-58
2023/03/12 02:31:18;;;;;;;13.30;6.43;;;;;;;5.14;62.65;101751.16;4945574;28;20142;-58
2023/03/12 02:33:50;;;;;;;11.82;5.88;;;;;;;5.24;62.86;101779.13;4946741;28;20098;-57
2023/03/12 02:36:21;;;;;;;25.02;11.75;;;;;;;5.22;62.68;101779.88;4948753;28;20054;-58
2023/03/12 02:38:52;;;;;;;36.75;17.38;;;;;;;5.04;63.21;101775.94;4945795;28;20483;-57
2023/03/12 02:41:29;;;;;;;33.20;17.27;;;;;;;5.12;62.90;101790.00;4946912;28;20217;-57
2023/03/12 02:44:04;;;;;;;23.83;9.57;;;;;;;5.31;63.33;101800.91;4940863;28;20049;-57
2023/03/12 02:46:37;;;;;;;19.48;7.22;;;;;;;5.12;62.90;101753.72;4944456;28;20116;-58
2023/03/12 02:49:08;;;;;;;14.02;5.80;;;;;;;5.32;62.52;101776.75;4945693;28;20063;-58
2023/03/12 02:51:39;;;;;;;18.67;7.15;;;;;;;5.18;62.30;101761.66;4946438;28;20044;-58
2023/03/12 02:54:12;;;;;;;15.85;6.22;;;;;;;5.14;62.54;101757.25;4936099;28;20120;-57
2023/03/12 02:56:46;;;;;;;17.33;6.55;;;;;;;5.09;62.67;101764.00;4944154;28;20349;-58
2023/03/12 02:59:19;;;;;;;15.55;6.40;;;;;;;4.86;62.80;101755.50;4946153;28;20051;-58
2023/03/12 03:01:55;;;;;;;12.80;6.82;;;;;;;4.80;63.56;101768.28;4941136;28;20068;-57
2023/03/12 03:04:27;;;;;;;10.43;5.88;;;;;;;4.66;63.46;101767.81;4944749;28;20128;-57
2023/03/12 03:06:59;;;;;;;17.83;6.32;;;;;;;4.41;63.67;101754.94;4945049;28;20049;-57
2023/03/12 03:09:33;;;;;;;14.85;6.40;;;;;;;4.37;64.38;101763.41;4937972;28;20109;-56
2023/03/12 03:12:07;;;;;;;14.25;6.05;;;;;;;4.33;64.73;101760.72;4943904;28;20051;-57
2023/03/12 03:14:42;;;;;;;16.88;5.78;;;;;;;4.20;65.35;101742.19;4943829;28;20120;-57
2023/03/12 03:17:13;;;;;;;14.25;6.03;;;;;;;4.12;64.76;101754.84;4927365;28;20056;-57
2023/03/12 03:19:45;;;;;;;11.52;5.80;;;;;;;4.11;65.71;101755.66;4946193;28;20051;-57
2023/03/12 03:22:17;;;;;;;11.77;5.60;;;;;;;4.00;65.05;101742.38;4944219;28;20055;-57
2023/03/12 03:24:49;;;;;;;11.98;6.40;;;;;;;3.84;65.86;101756.50;4944839;28;20054;-57
2023/03/12 03:27:25;;;;;;;13.90;5.63;;;;;;;3.88;65.93;101753.16;4942744;28;20473;-57
2023/03/12 03:29:57;;;;;;;11.25;5.63;;;;;;;3.79;65.24;101729.56;4947997;27;20047;-57
2023/03/12 03:32:29;;;;;;;14.45;5.35;;;;;;;3.83;66.06;101739.19;4947048;27;20133;-57
2023/03/12 03:35:01;;;;;;;11.90;4.95;;;;;;;3.91;65.92;101736.00;4944106;27;20459;-57
2023/03/12 03:37:32;;;;;;;11.45;5.20;;;;;;;3.95;66.03;101727.53;4949248;27;20051;-57
2023/03/12 03:40:10;;;;;;;14.75;5.57;;;;;;;3.21;65.65;101626.75;4947855;27;20104;-57
2023/03/12 03:42:45;;;;;;;9.32;4.85;;;;;;;3.65;66.06;101723.06;4937843;27;21020;-57
2023/03/12 03:45:18;;;;;;;11.95;5.85;;;;;;;3.69;66.72;101709.41;4941050;27;20145;-57
2023/03/12 03:47:51;;;;;;;10.85;5.40;;;;;;;3.73;66.48;101711.28;4947387;27;20159;-57
2023/03/12 03:50:22;;;;;;;12.43;5.55;;;;;;;3.73;65.98;101711.28;4936162;27;20050;-57
2023/03/12 03:52:54;;;;;;;11.10;5.57;;;;;;;3.41;66.62;101672.25;4946954;27;20051;-57
2023/03/12 03:55:25;;;;;;;9.50;5.10;;;;;;;3.52;66.47;101710.50;4947935;27;20086;-56
2023/03/12 03:57:59;;;;;;;15.75;6.05;;;;;;;3.53;66.36;101717.44;4948519;27;20411;-57
2023/03/12 04:00:30;;;;;;;12.93;5.75;;;;;;;3.61;67.01;101714.31;4943839;27;20097;-57
2023/03/12 04:03:02;;;;;;;12.93;5.90;;;;;;;3.57;66.96;101708.97;4946956;27;20088;-57
2023/03/12 04:05:34;;;;;;;11.10;5.43;;;;;;;3.09;67.14;101657.31;4946831;27;20696;-57
2023/03/12 04:08:06;;;;;;;14.82;6.32;;;;;;;3.28;67.59;101706.22;4945131;27;20048;-57
2023/03/12 04:10:38;;;;;;;13.60;6.00;;;;;;;3.39;67.74;101715.22;4945752;27;20075;-57
2023/03/12 04:13:10;;;;;;;13.73;6.20;;;;;;;3.42;67.62;101710.19;4946852;27;20695;-57
2023/03/12 04:15:48;;;;;;;10.98;5.22;;;;;;;3.27;67.73;101708.75;4938525;27;20067;-57
2023/03/12 04:18:19;;;;;;;13.30;5.95;;;;;;;3.23;68.00;101707.78;4946295;27;20130;-57
2023/03/12 04:20:56;;;;;;;12.57;5.90;;;;;;;3.31;68.19;101706.34;4942974;27;20528;-58
2023/03/12 04:23:27;;;;;;;14.05;6.40;;;;;;;3.27;68.04;101699.31;4947609;27;20079;-57
2023/03/12 04:25:57;;;;;;;14.80;6.07;;;;;;;3.27;68.27;101699.31;4947770;27;20051;-57
2023/03/12 04:28:29;;;;;;;13.88;6.38;;;;;;;2.84;68.04;101625.41;4946937;27;20062;-57
2023/03/12 04:31:17;;;;;;;16.85;6.72;;;;;;;3.25;68.32;101693.22;4950693;27;20576;-56
2023/03/12 04:34:14;;;;;;;12.82;6.38;;;;;;;3.10;68.74;101679.75;4936991;27;20051;-57
2023/03/12 04:36:48;;;;;;;;;;;;;;;2.98;68.86;101681.03;4935737;27;20047;-59
2023/03/12 04:39:21;;;;;;;11.13;6.28;;;;;;;3.08;69.19;101673.63;4946305;27;20320;-56
2023/03/12 04:41:52;;;;;;;17.58;5.47;;;;;;;3.09;68.87;101683.13;4947614;27;20055;-57
2023/03/12 04:44:26;;;;;;;15.80;5.32;;;;;;;2.91;68.72;101683.34;4946664;27;20083;-57
2023/03/12 04:46:58;;;;;;;17.02;6.78;;;;;;;2.78;69.58;101680.28;4946281;27;20047;-57
2023/03/12 04:49:30;;;;;;;11.43;5.22;;;;;;;2.84;69.83;101677.03;4946453;27;20625;-57
2023/03/12 04:52:02;;;;;;;14.95;6.55;;;;;;;2.85;69.61;101678.81;4952129;27;20060;-57
2023/03/12 04:54:35;;;;;;;13.63;6.40;;;;;;;2.80;69.89;101677.78;4945671;27;20078;-58
2023/03/12 04:57:08;;;;;;;11.82;6.30;;;;;;;2.74;70.41;101674.94;4946475;27;20471;-58
2023/03/12 04:59:41;;;;;;;12.70;5.72;;;;;;;2.75;69.88;101666.41;4947085;27;20043;-57
2023/03/12 05:02:13;;;;;;;11.63;5.60;;;;;;;2.66;70.51;101666.91;4936711;27;20134;-57
2023/03/12 05:04:45;;;;;;;16.13;6.70;;;;;;;2.68;70.91;101659.22;4946936;27;20066;-57
2023/03/12 05:07:16;;;;;;;13.77;5.93;;;;;;;2.71;70.97;101659.34;4947848;27;20047;-58
2023/03/12 05:09:48;;;;;;;13.55;5.50;;;;;;;2.78;70.94;101656.19;4947497;27;20059;-58
2023/03/12 05:12:20;;;;;;;13.68;6.90;;;;;;;2.01;70.83;101550.06;4944774;27;20052;-57
2023/03/12 05:14:53;;;;;;;17.08;6.47;;;;;;;2.45;71.24;101645.47;4948763;27;20056;-58
2023/03/12 05:17:25;;;;;;;11.50;6.30;;;;;;;2.46;71.64;101653.22;4947143;27;20044;-58
2023/03/12 05:19:56;;;;;;;13.40;6.35;;;;;;;2.25;71.80;101616.31;4946012;27;20047;-58
2023/03/12 05:22:28;;;;;;;15.48;6.43;;;;;;;2.45;72.21;101656.66;4946122;27;20135;-58
2023/03/12 05:25:00;;;;;;;13.85;6.18;;;;;;;2.35;72.24;101650.25;4947309;27;20049;-57
2023/03/12 05:27:32;;;;;;;14.18;6.22;;;;;;;2.28;72.91;101652.53;4940037;27;20049;-58
2023/03/12 05:30:07;;;;;;;12.85;6.50;;;;;;;2.07;73.18;101648.28;4945276;27;20127;-58
2023/03/12 05:32:40;;;;;;;13.23;4.95;;;;;;;2.18;73.58;101646.13;4945942;27;20120;-57
2023/03/12 05:35:12;;;;;;;9.18;5.68;;;;;;;1.69;73.48;101587.41;4938633;27;20515;-58
2023/03/12 05:37:44;;;;;;;14.43;5.72;;;;;;;2.02;73.96;101660.09;4946584;27;20237;-58
2023/03/12 05:40:17;;;;;;;10.27;5.63;;;;;;;1.94;73.88;101664.91;4945372;27;20067;-58
2023/03/12 05:42:48;;;;;;;12.15;5.78;;;;;;;1.87;74.68;101664.59;4946607;27;20172;-58
2023/03/12 05:45:21;;;;;;;13.65;5.45;;;;;;;1.80;74.70;101678.97;4946539;27;21962;-58
2023/03/12 05:47:53;;;;;;;9.52;6.20;;;;;;;1.67;75.78;101664.69;4935438;28;20058;-58
2023/03/12 05:50:28;;;;;;;10.63;6.22;;;;;;;1.60;76.18;101659.16;4945606;27;20056;-58
2023/03/12 05:53:00;;;;;;;12.52;7.00;;;;;;;1.60;76.11;101660.06;4945304;27;20083;-58
2023/03/12 05:55:36;;;;;;;10.23;6.30;;;;;;;1.61;76.42;101651.53;4940400;27;20057;-57
2023/03/12 05:58:09;;;;;;;14.52;7.28;;;;;;;1.32;76.29;101595.31;4945443;27;20120;-59
2023/03/12 06:00:43;;;;;;;12.52;7.10;;;;;;;1.56;75.91;101658.19;4940408;27;20134;-58
2023/03/12 06:03:15;;;;;;;12.95;7.35;;;;;;;1.47;76.57;101652.63;4945871;28;20167;-58
2023/03/12 06:05:47;;;;;;;30.48;13.02;;;;;;;1.44;76.30;101665.38;4937462;27;20047;-58
2023/03/12 06:08:18;;;;;;;30.63;11.63;;;;;;;1.28;76.47;101662.13;4945342;27;20054;-58
2023/03/12 06:10:53;;;;;;;49.15;19.25;;;;;;;1.25;76.88;101666.28;4945432;27;20389;-58
2023/03/12 06:13:29;;;;;;;15.43;7.95;;;;;;;1.27;77.21;101665.53;4935635;27;20047;-59
2023/03/12 06:16:08;;;;;;;10.43;6.50;;;;;;;1.31;77.17;101670.81;4937617;27;20809;-59
2023/03/12 06:18:40;;;;;;;11.65;6.80;;;;;;;1.17;77.57;101668.50;4944237;28;20119;-57
2023/03/12 06:21:15;;;;;;;10.52;6.07;;;;;;;1.17;77.73;101668.50;4948278;27;20222;-58
2023/03/12 06:23:47;;;;;;;12.55;6.25;;;;;;;1.19;78.34;101666.88;4944589;28;20154;-59
2023/03/12 06:26:20;;;;;;;14.32;7.00;;;;;;;1.28;78.18;101662.13;4945666;28;20534;-59
2023/03/12 06:28:55;;;;;;;15.50;7.78;;;;;;;1.38;77.93;101662.56;4935094;28;20051;-59
2023/03/12 06:31:29;;;;;;;16.63;8.07;;;;;;;1.33;77.85;101658.91;4945439;28;20150;-59
2023/03/12 06:34:01;;;;;;;15.68;9.95;;;;;;;1.37;77.94;101659.06;4943788;28;20076;-58
2023/03/12 06:36:33;;;;;;;12.80;8.32;;;;;;;1.34;77.79;101661.50;4945379;28;20050;-59
2023/03/12 06:39:07;;;;;;;21.10;9.88;;;;;;;1.33;77.84;101658.91;4945199;28;20056;-59
2023/03/12 06:41:40;;;;;;;16.02;9.60;;;;;;;1.06;77.54;101618.25;4945828;28;20606;-60
2023/03/12 06:44:11;;;;;;;12.82;8.38;;;;;;;1.27;78.28;101655.25;4937077;28;20045;-59
2023/03/12 06:46:45;;;;;;;14.73;8.48;;;;;;;1.25;77.94;101646.56;4945104;28;20043;-59
2023/03/12 06:49:16;;;;;;;39.63;18.58;;;;;;;1.11;77.75;101651.91;4945532;28;20630;-60
2023/03/12 06:51:48;;;;;;;32.95;15.90;;;;;;;1.05;78.35;101637.09;4945853;28;20738;-59
2023/03/12 06:54:20;;;;;;;23.95;10.68;;;;;;;0.97;77.85;101639.28;4944717;28;20491;-57
2023/03/12 06:56:52;;;;;;;32.15;16.20;;;;;;;0.36;78.01;101537.09;4948849;28;20460;-60
2023/03/12 06:59:23;;;;;;;20.15;11.88;;;;;;;0.93;78.78;101628.81;4946393;28;20141;-59
2023/03/12 07:01:56;;;;;;;18.80;11.18;;;;;;;0.97;78.83;101628.13;4947000;28;20047;-58
2023/03/12 07:04:26;;;;;;;17.17;9.18;;;;;;;0.95;78.31;101624.59;4948471;27;20071;-59
2023/03/12 07:06:57;;;;;;;16.80;8.70;;;;;;;0.88;78.35;101622.59;4949964;27;20486;-59
2023/03/12 07:09:28;;;;;;;20.55;10.02;;;;;;;0.85;78.17;101634.50;4949509;27;20504;-59
2023/03/12 07:11:58;;;;;;;20.52;9.75;;;;;;;0.81;78.04;101627.44;4949087;27;20051;-60
2023/03/12 07:14:29;;;;;;;22.45;10.40;;;;;;;0.70;78.15;101636.38;4947974;27;20082;-60
2023/03/12 07:17:01;;;;;;;23.73;10.90;;;;;;;0.63;78.86;101626.63;4943906;27;20046;-59
2023/03/12 07:19:32;;;;;;;20.15;10.43;;;;;;;0.65;78.75;101625.00;4939621;27;20051;-58
2023/03/12 07:22:02;;;;;;;17.38;9.82;;;;;;;0.64;79.07;101607.78;4949235;27;20142;-60
2023/03/12 07:24:34;;;;;;;14.82;8.35;;;;;;;0.74;79.12;101620.25;4948592;27;20066;-60
2023/03/12 07:27:05;;;;;;;13.70;7.50;;;;;;;0.75;79.17;101623.69;4949257;27;20055;-60
2023/03/12 07:29:35;;;;;;;15.20;8.13;;;;;;;0.72;79.00;101615.84;4948049;27;20047;-60
2023/03/12 07:32:07;;;;;;;12.25;7.55;;;;;;;0.69;79.25;101611.44;4948316;27;20051;-59
2023/03/12 07:34:38;;;;;;;15.55;8.85;;;;;;;0.71;79.47;101627.84;4948734;27;20134;-60
2023/03/12 07:37:09;;;;;;;16.08;8.07;;;;;;;0.77;79.23;101619.50;4949813;27;20054;-59
2023/03/12 07:39:39;;;;;;;15.70;9.25;;;;;;;0.77;79.39;101620.38;4948803;27;20945;-58
2023/03/12 07:42:11;;;;;;;18.67;9.40;;;;;;;0.83;79.54;101615.53;4945114;27;20052;-60
2023/03/12 07:44:42;;;;;;;15.57;8.40;;;;;;;0.85;79.50;101619.06;4947747;27;20155;-59
2023/03/12 07:47:14;;;;;;;21.08;11.43;;;;;;;0.78;79.91;101611.88;4949091;27;20146;-60
2023/03/12 07:49:52;;;;;;;;;;;;;;;0.77;79.49;101615.25;4938626;27;20063;-60
2023/03/12 07:52:23;;;;;;;19.92;9.98;;;;;;;0.75;79.62;101616.88;4949441;27;19928;-60
2023/03/12 07:54:55;;;;;;;25.23;10.52;;;;;;;0.75;79.92;101615.97;4949202;27;20108;-60
2023/03/12 07:57:25;;;;;;;21.70;11.10;;;;;;;0.70;80.09;101608.09;4948603;27;20781;-59
2023/03/12 07:59:56;;;;;;;14.35;8.40;;;;;;;0.59;79.97;101610.16;4946253;27;20083;-59
2023/03/12 08:02:29;;;;;;;16.75;8.27;;;;;;;0.54;79.98;101609.06;4948112;27;20051;-59
2023/03/12 08:04:59;;;;;;;18.52;9.55;;;;;;;0.49;80.23;101602.81;4947066;27;20082;-60
2023/03/12 08:07:41;;;;;;;15.98;8.95;;;;;;;0.53;80.88;101603.88;4953116;27;20057;-59
2023/03/12 08:10:18;;;;;;;18.25;9.40;;;;;;;0.27;80.48;101575.25;4864412;27;20052;-59
2023/03/12 08:12:56;;;;;;;19.00;9.90;;;;;;;0.35;80.48;101589.34;4947895;27;20070;-60
2023/03/12 08:15:34;;;;;;;17.33;9.00;;;;;;;0.09;80.75;101564.13;4936941;27;20217;-60
2023/03/12 08:18:12;;;;;;;14.63;8.18;;;;;;;0.19;81.22;101603.16;4947812;27;20492;-60
2023/03/12 08:20:42;;;;;;;15.88;8.00;;;;;;;0.14;81.50;101588.34;4936067;27;20066;-60
2023/03/12 08:23:15;;;;;;;18.52;9.18;;;;;;;0.10;81.92;101586.41;4949193;27;20061;-61
2023/03/12 08:25:47;;;;;;;16.98;9.43;;;;;;;-0.04;82.17;101573.81;4941458;27;20054;-61
2023/03/12 08:28:19;;;;;;;23.33;11.52;;;;;;;0.02;81.87;101578.34;4947410;27;20687;-60
2023/03/12 08:30:53;;;;;;;19.63;10.10;;;;;;;0.03;81.93;101574.13;4939164;27;20434;-60
2023/03/12 08:33:27;;;;;;;21.90;10.23;;;;;;;0.05;82.18;101572.47;4947948;27;20055;-60
2023/03/12 08:36:00;;;;;;;25.38;11.55;;;;;;;-0.01;82.18;101558.53;4942998;27;20694;-60
2023/03/12 08:38:33;;;;;;;19.88;11.18;;;;;;;0.06;82.30;101566.53;4947851;27;20055;-60
2023/03/12 08:41:04;;;;;;;16.85;9.25;;;;;;;0.05;82.43;101562.19;4948185;27;20513;-61
2023/03/12 08:43:38;;;;;;;16.85;9.75;;;;;;;0.08;82.71;101562.38;4947082;27;21041;-60
2023/03/12 08:46:10;;;;;;;18.48;8.88;;;;;;;0.09;82.59;101554.72;4945797;27;20057;-60
2023/03/12 08:48:45;;;;;;;17.83;10.50;;;;;;;0.08;82.55;101552.09;4948301;27;21159;-60
2023/03/12 08:51:16;;;;;;;18.25;9.50;;;;;;;-0.03;82.57;101544.72;4947520;27;20058;-60
2023/03/12 08:53:48;;;;;;;17.65;9.00;;;;;;;-0.16;82.39;101526.97;4947113;27;20058;-60
2023/03/12 08:56:20;;;;;;;18.33;9.43;;;;;;;-0.06;82.70;101554.88;4946528;27;20214;-60
2023/03/12 08:58:51;;;;;;;17.25;10.43;;;;;;;-0.22;82.74;101526.69;4950911;27;21122;-61
2023/03/12 09:01:23;;;;;;;17.17;9.20;;;;;;;-0.12;83.00;101556.28;4948217;27;20052;-62
2023/03/12 09:03:56;;;;;;;18.23;9.70;;;;;;;-0.16;83.15;101547.53;4946783;27;20048;-60
2023/03/12 09:06:28;;;;;;;20.02;10.20;;;;;;;-0.12;83.48;101544.31;4947060;27;20055;-61
2023/03/12 09:09:07;;;;;;;17.85;10.25;;;;;;;-0.17;83.45;101540.66;4947678;27;20704;-62
2023/03/12 09:11:40;;;;;;;22.02;11.20;;;;;;;-0.16;83.38;101542.41;4934744;27;20067;-61
2023/03/12 09:14:12;;;;;;;19.33;10.43;;;;;;;-0.19;83.43;101542.25;4936773;27;20053;-61
2023/03/12 09:17:03;;;;;;;19.02;10.10;;;;;;;-0.19;83.95;101534.53;4936573;27;20163;-61
2023/03/12 09:19:37;;;;;;;19.90;9.65;;;;;;;-0.13;83.89;101552.81;4947037;27;20051;-62
2023/03/12 09:22:08;;;;;;;19.48;9.60;;;;;;;-0.12;83.75;101544.31;4946269;27;20402;-62
2023/03/12 09:24:40;;;;;;;19.42;9.93;;;;;;;-0.63;83.73;101451.13;4945245;27;20045;-61
2023/03/12 09:27:11;;;;;;;21.25;9.25;;;;;;;-0.13;83.39;101542.53;4937419;27;20052;-62
2023/03/12 09:29:43;;;;;;;14.45;8.82;;;;;;;-0.10;83.76;101544.38;4945916;27;20047;-62
2023/03/12 09:32:29;;;;;;;15.38;8.20;;;;;;;-0.39;83.77;101507.03;4935848;27;20059;-62
2023/03/12 09:35:02;;;;;;;22.83;9.45;;;;;;;-0.18;84.03;101528.59;4943614;27;20851;-62
2023/03/12 09:37:39;;;;;;;14.85;8.30;;;;;;;-0.16;83.63;101532.13;4948287;27;20057;-61
2023/03/12 09:40:24;;;;;;;15.80;8.75;;;;;;;-0.18;83.72;101523.44;4943366;27;20083;-62
2023/03/12 09:42:59;;;;;;;16.90;8.07;;;;;;;-0.24;83.69;101518.03;4932738;27;20158;-62
2023/03/12 09:45:33;;;;;;;24.23;13.68;;;;;;;-0.25;84.13;101512.03;4941930;27;20109;-63
2023/03/12 09:48:07;;;;;;;22.33;10.57;;;;;;;-0.36;84.54;101481.50;4945024;27;20051;-63
2023/03/12 09:50:42;;;;;;;17.33;9.13;;;;;;;-0.14;84.17;101509.94;4945656;27;20132;-63
2023/03/12 09:53:22;;;;;;;14.60;7.68;;;;;;;-0.44;84.30;101463.16;4935776;27;20048;-66
2023/03/12 09:55:57;;;;;;;17.17;8.40;;;;;;;-0.49;83.94;101475.78;4936099;27;20124;-63
2023/03/12 09:58:31;;;;;;;15.40;7.50;;;;;;;-0.31;84.25;101500.56;4945525;27;20108;-65
2023/03/12 10:01:13;;;;;;;16.85;9.45;;;;;;;-0.35;84.96;101504.69;4936479;27;20047;-66
2023/03/12 10:04:19;;;;;;;13.45;8.27;;;;;;;-0.34;84.82;101500.44;4936686;27;20517;-64
2023/03/12 10:06:57;;;;;;;15.82;7.55;;;;;;;-0.39;84.68;101507.03;4941882;27;20091;-63
2023/03/12 10:09:46;;;;;;;17.48;8.75;;;;;;;-0.40;84.96;101507.81;4945538;28;20047;-65
2023/03/12 10:12:28;;;;;;;16.10;8.00;;;;;;;-0.27;85.13;101512.75;4933904;27;20051;-65
2023/03/12 10:15:18;;;;;;;17.33;8.35;;;;;;;-0.35;84.78;101498.66;4935689;27;20048;-64
2023/03/12 10:18:01;;;;;;;15.00;8.10;;;;;;;-0.44;85.17;101494.84;4935201;28;20108;-68
2023/03/12 10:20:54;;;;;;;15.10;8.05;;;;;;;-0.89;84.84;101409.69;4934602;28;20139;-63
2023/03/12 10:23:39;;;;;;;16.90;7.93;;;;;;;-0.42;85.37;101494.94;4934162;28;20054;-69
2023/03/12 10:26:15;;;;;;;15.63;8.45;;;;;;;-0.41;85.26;101488.09;4930473;28;20065;-67
2023/03/12 10:28:52;;;;;;;16.17;8.10;;;;;;;-0.60;85.01;101460.66;4945503;28;20069;-63
2023/03/12 10:31:28;;;;;;;13.35;8.10;;;;;;;-0.53;85.10;101484.13;4935993;28;20055;-65
2023/03/12 10:34:01;;;;;;;16.05;7.90;;;;;;;-0.68;85.42;101468.00;4945239;28;23399;-65
2023/03/12 10:36:39;;;;;;;34.38;14.60;;;;;;;-0.62;85.94;101468.31;4935511;27;20047;-70
2023/03/12 10:39:16;;;;;;;21.08;9.45;;;;;;;-0.60;86.04;101461.56;4946773;27;20128;-67
2023/03/12 10:41:51;;;;;;;23.92;11.23;;;;;;;-0.67;85.93;101446.66;4950410;27;20486;-65
2023/03/12 10:44:25;;;;;;;23.67;10.68;;;;;;;-0.61;86.18;101459.78;4938777;27;20048;-66
2023/03/12 10:47:09;;;;;;;19.58;9.27;;;;;;;-1.09;86.14;101382.19;4948901;27;20727;-67
2023/03/12 10:50:13;;;;;;;30.15;14.98;;;;;;;-0.53;86.59;101453.31;4935517;27;20105;-64
2023/03/12 10:52:46;;;;;;;17.77;10.13;;;;;;;-0.58;86.55;101444.50;4938185;27;20136;-67
2023/03/12 10:55:26;;;;;;;18.35;9.30;;;;;;;-0.61;86.36;101428.09;4934524;27;20059;-66
2023/03/12 10:57:58;;;;;;;22.15;9.68;;;;;;;-0.41;86.10;101452.16;4923715;27;20130;-66
2023/03/12 11:00:31;;;;;;;16.23;9.20;;;;;;;-0.41;86.28;101447.00;4949683;27;20044;-66
2023/03/12 11:03:04;;;;;;;15.18;8.95;;;;;;;-0.62;85.93;101416.97;4938503;27;20075;-66
2023/03/12 11:05:37;;;;;;;17.45;9.15;;;;;;;-0.68;86.02;101411.53;4949397;27;20048;-67
2023/03/12 11:08:22;;;;;;;21.27;8.88;;;;;;;-0.49;86.25;101444.09;4949661;27;20052;-65
2023/03/12 11:10:57;;;;;;;17.60;9.65;;;;;;;-1.00;86.26;101351.88;4936405;27;20048;-66
2023/03/12 11:13:32;;;;;;;17.25;9.00;;;;;;;-0.54;86.31;101423.31;4947755;27;20055;-66
2023/03/12 11:16:04;;;;;;;18.52;8.45;;;;;;;-0.49;86.29;101418.41;4939470;27;20043;-66
2023/03/12 11:18:37;;;;;;;20.33;9.82;;;;;;;-0.89;86.64;101325.03;4950655;27;20127;-65
2023/03/12 11:21:18;;;;;;;22.92;9.32;;;;;;;-0.36;86.40;101394.19;4947404;27;20051;-66
2023/03/12 11:24:07;;;;;;;19.05;9.57;;;;;;;-0.27;86.16;101400.63;4937924;27;20055;-66
2023/03/12 11:26:51;;;;;;;19.35;10.00;;;;;;;-0.45;86.11;101359.56;4937931;27;20549;-66
2023/03/12 11:29:30;;;;;;;17.25;9.63;;;;;;;-0.22;85.78;101388.00;4925588;27;20048;-68
2023/03/12 11:32:06;;;;;;;19.05;10.15;;;;;;;-0.18;85.35;101399.28;4939795;27;20136;-66
2023/03/12 11:34:40;;;;;;;15.85;9.25;;;;;;;-0.33;85.77;101358.34;4949306;27;20059;-65
2023/03/12 11:37:19;;;;;;;23.15;10.70;;;;;;;-0.29;85.63;101375.69;4939360;27;20052;-68
2023/03/12 11:40:15;;;;;;;18.70;8.80;;;;;;;-0.32;85.55;101365.28;4941451;27;20898;-65
2023/03/12 11:43:24;;;;;;;19.85;9.85;;;;;;;-0.29;85.46;101393.66;4937615;27;20051;-67
2023/03/12 11:46:30;;;;;;;18.15;9.85;;;;;;;-0.31;85.96;101387.56;4885342;27;20046;-67
2023/03/12 11:49:15;;;;;;;22.73;10.25;;;;;;;-0.25;86.33;101387.81;4937683;27;20132;-66
2023/03/12 11:51:54;;;;;;;16.83;9.60;;;;;;;-0.24;85.83;101392.19;4937410;27;20051;-66
2023/03/12 11:55:09;;;;;;;22.65;9.80;;;;;;;-0.26;85.79;101386.09;4938583;27;20070;-66